CDT,Max TemperatureF,Mean TemperatureF,Min TemperatureF,Max Dew PointF,MeanDew PointF,Min DewpointF,Max Humidity, Mean Humidity, Min Humidity, Max Sea Level PressureIn, Mean Sea Level PressureIn, Min Sea Level PressureIn, Max VisibilityMiles, Mean VisibilityMiles, Min VisibilityMiles, Max Wind SpeedMPH, Mean Wind SpeedMPH, Max Gust SpeedMPH,PrecipitationIn, CloudCover, Events, WindDirDegrees
2013-5-1,81,66,50,61,56,51,100,70,45,30.22,30.16,30.10,10,10,6,10,3,,0.00,1,,90
2013-5-2,75,64,52,58,55,51,100,69,50,30.24,30.17,30.12,10,10,10,9,4,,0.00,1,,109
2013-5-3,74,66,57,59,54,47,84,65,48,30.12,30.03,29.96,10,9,0,16,7,20,0.00,3,Rain-Thunderstorm,138
2013-5-4,61,56,51,54,51,44,100,93,55,30.00,29.97,29.91,10,4,1,12,5,18,1.11,7,Rain,44
2013-5-5,57,54,50,57,53,51,100,99,93,29.93,29.87,29.83,10,5,1,15,8,18,1.06,8,Rain,51
2013-5-6,64,57,48,54,51,49,100,92,64,29.96,29.86,29.78,10,7,0,13,5,17,0.16,5,Fog-Rain-Thunderstorm,135
2013-5-7,68,56,44,59,51,45,100,92,61,30.03,29.98,29.93,10,5,0,7,3,,0.01,6,Fog-Rain,242
2013-5-8,75,64,54,61,58,55,100,82,50,30.10,30.03,29.96,10,8,2,14,4,17,0.00,4,,299
2013-5-9,79,65,51,62,57,52,100,84,40,30.12,30.08,30.03,10,6,0,12,5,17,0.06,2,Fog-Rain-Thunderstorm,232
2013-5-10,68,64,59,64,62,58,100,90,75,30.06,30.00,29.93,10,8,1,20,8,26,0.21,4,Rain,209
2013-5-11,64,57,50,63,59,50,100,97,77,30.06,29.97,29.93,10,5,0,14,7,21,0.08,7,Fog-Rain,275
2013-5-12,61,51,39,55,36,28,100,58,31,30.22,30.15,30.05,10,10,10,13,9,20,0.00,1,Rain,307
2013-5-13,64,49,34,42,36,31,100,69,30,30.29,30.24,30.19,10,10,10,12,3,16,0.00,0,,301
2013-5-14,81,60,39,59,50,39,100,63,42,30.23,30.11,30.00,10,10,10,20,6,23,0.00,1,,212
2013-5-15,83,71,59,57,55,52,86,54,36,30.12,30.05,29.99,10,10,10,17,11,23,0.00,0,,230
2013-5-16,81,71,61,65,60,54,84,67,49,30.06,30.02,29.98,10,10,10,13,6,,0.00,0,,228
2013-5-17,75,67,59,70,65,59,100,91,64,30.11,30.07,30.02,10,6,2,9,2,,0.04,2,Rain,179
2013-5-18,73,68,63,72,67,64,100,97,83,30.07,30.04,30.01,10,7,0,9,3,,0.30,6,Fog-Rain,158
2013-5-19,78,70,61,74,68,62,100,96,83,30.05,30.02,29.99,10,5,0,10,2,,0.42,3,Fog-Rain,167
2013-5-20,84,72,61,72,68,60,100,81,65,30.10,30.04,29.98,10,10,7,13,5,,0.00,2,,187
2013-5-21,86,74,63,70,65,63,100,84,55,30.03,29.99,29.92,10,8,2,39,6,48,0.04,1,Rain-Thunderstorm,202
2013-5-22,77,70,63,68,65,63,100,88,64,29.95,29.90,29.85,10,8,0,24,8,32,0.00,1,Fog-Rain,214
2013-5-23,77,66,55,66,60,55,100,89,54,30.07,29.96,29.91,10,5,0,17,3,25,0.00,3,Fog,272
2013-5-24,68,58,45,59,49,43,100,75,40,30.34,30.24,30.07,10,9,2,16,10,25,0.01,4,Rain,355
2013-5-25,73,57,41,52,45,39,100,63,31,30.39,30.32,30.23,10,9,2,8,2,,0.00,1,,50
2013-5-26,77,66,54,57,52,49,100,68,38,30.32,30.27,30.21,10,10,10,7,2,,0.00,2,,99
2013-5-27,83,68,54,62,57,52,100,64,33,30.21,30.14,30.08,10,10,10,16,5,21,0.00,0,,202
2013-5-28,84,72,59,64,60,58,97,61,41,30.16,30.10,30.05,10,10,10,16,8,23,0.00,0,,196
2013-5-29,86,76,66,69,64,58,90,67,53,30.19,30.14,30.09,10,10,9,12,5,,0.00,1,,189
2013-5-30,86,74,63,68,65,62,96,70,51,30.21,30.15,30.09,10,10,10,15,6,20,0.00,0,,171
2013-5-31,84,77,70,67,65,64,81,66,51,30.14,30.09,30.03,10,10,10,21,10,26,0.00,0,,186